createdAt,value
2022-12-17T00:00:02.216Z,-6.24
2022-12-17T00:02:48.990Z,-6.40
2022-12-17T00:05:34.920Z,-6.39
2022-12-17T00:08:19.952Z,-6.28
2022-12-17T00:11:05.259Z,-6.26
2022-12-17T00:13:50.285Z,-6.51
2022-12-17T00:16:35.613Z,-6.44
2022-12-17T00:19:22.850Z,-6.13
2022-12-17T00:22:07.893Z,-6.13
2022-12-17T00:24:53.107Z,-5.89
2022-12-17T00:27:41.978Z,-5.86
2022-12-17T00:30:28.118Z,-5.66
2022-12-17T00:33:13.320Z,-5.66
2022-12-17T00:36:00.412Z,-5.66
2022-12-17T00:38:45.646Z,-5.61
2022-12-17T00:41:31.107Z,-5.57
2022-12-17T00:44:19.253Z,-5.51
2022-12-17T00:47:04.428Z,-5.46
2022-12-17T00:49:49.919Z,-5.48
2022-12-17T00:52:36.803Z,-5.46
2022-12-17T00:55:22.581Z,-5.50
2022-12-17T00:58:11.564Z,-5.37
2022-12-17T01:00:57.062Z,-5.53
2022-12-17T01:03:42.770Z,-5.69
2022-12-17T01:06:28.518Z,-5.69
2022-12-17T01:09:15.617Z,-5.72
2022-12-17T01:12:00.818Z,-5.81
2022-12-17T01:14:46.350Z,-6.20
2022-12-17T01:17:32.022Z,-6.04
2022-12-17T01:20:17.193Z,-5.99
2022-12-17T01:23:18.856Z,-6.04
2022-12-17T01:26:12.151Z,-6.29
2022-12-17T01:28:57.397Z,-6.34
2022-12-17T01:31:42.831Z,-6.36
2022-12-17T01:34:29.068Z,-6.31
2022-12-17T01:37:14.281Z,-6.31
2022-12-17T01:40:13.968Z,-6.34
2022-12-17T01:43:04.179Z,-6.55
2022-12-17T01:45:55.006Z,-6.45
2022-12-17T01:48:46.608Z,-6.53
2022-12-17T01:51:33.210Z,-6.43
2022-12-17T01:54:20.314Z,-6.45
2022-12-17T01:57:06.453Z,-6.42
2022-12-17T01:59:59.769Z,-6.22
2022-12-17T02:02:45.730Z,-6.11
2022-12-17T02:05:31.190Z,-6.08
2022-12-17T02:08:28.115Z,-6.29
2022-12-17T02:11:24.282Z,-6.07
2022-12-17T02:14:34.220Z,-6.04
2022-12-17T02:17:22.598Z,-6.02
2022-12-17T02:20:16.533Z,-5.96
2022-12-17T02:23:10.939Z,-5.87
2022-12-17T02:26:01.223Z,-5.80
2022-12-17T02:28:49.469Z,-5.64
2022-12-17T02:31:35.560Z,-5.72
2022-12-17T02:34:21.069Z,-5.62
2022-12-17T02:37:06.710Z,-5.74
2022-12-17T02:39:52.064Z,-5.71
2022-12-17T02:42:42.271Z,-5.72
2022-12-17T02:45:29.872Z,-5.77
2022-12-17T02:48:15.725Z,-5.85
2022-12-17T02:51:01.485Z,-5.87
2022-12-17T02:53:46.657Z,-6.00
2022-12-17T02:56:31.799Z,-6.04
2022-12-17T02:59:17.239Z,-6.05
2022-12-17T03:02:04.441Z,-5.92
2022-12-17T03:04:50.109Z,-5.95
2022-12-17T03:07:35.618Z,-5.94
2022-12-17T03:10:20.575Z,-5.91
2022-12-17T03:13:05.783Z,-5.84
2022-12-17T03:15:50.842Z,-5.88
2022-12-17T03:18:37.471Z,-5.83
2022-12-17T03:21:23.185Z,-5.89
2022-12-17T03:24:08.353Z,-5.89
2022-12-17T03:26:53.392Z,-5.78
2022-12-17T03:29:38.527Z,-5.73
2022-12-17T03:32:38.466Z,-5.75
2022-12-17T03:35:25.686Z,-5.78
2022-12-17T03:38:10.922Z,-5.64
2022-12-17T03:40:56.429Z,-5.68
2022-12-17T03:43:41.511Z,-5.90
2022-12-17T03:46:26.955Z,-5.82
2022-12-17T03:49:12.169Z,-6.04
2022-12-17T03:51:58.978Z,-5.72
2022-12-17T03:54:44.206Z,-5.69
2022-12-17T03:57:29.300Z,-5.71
2022-12-17T04:00:26.000Z,-5.53
2022-12-17T04:03:11.876Z,-5.36
2022-12-17T04:05:57.353Z,-5.32
2022-12-17T04:08:44.304Z,-5.29
2022-12-17T04:11:29.429Z,-5.36
2022-12-17T04:14:15.046Z,-5.43
2022-12-17T04:17:00.746Z,-5.30
2022-12-17T04:19:45.919Z,-5.28
2022-12-17T04:22:31.147Z,-5.56
2022-12-17T04:25:18.353Z,-5.53
2022-12-17T04:28:04.055Z,-5.50
2022-12-17T04:30:49.223Z,-5.50
2022-12-17T04:33:35.031Z,-5.52
2022-12-17T04:36:20.286Z,-5.74
2022-12-17T04:39:05.414Z,-5.69
2022-12-17T04:41:53.864Z,-5.46
2022-12-17T04:44:39.320Z,-5.50
2022-12-17T04:47:35.935Z,-5.54
2022-12-17T04:50:21.309Z,-5.65
2022-12-17T04:53:06.759Z,-5.44
2022-12-17T04:55:51.721Z,-5.57
2022-12-17T04:58:52.951Z,-5.44
2022-12-17T05:01:38.674Z,-5.51
2022-12-17T05:04:20.783Z,-5.45
2022-12-17T05:07:06.277Z,-5.46
2022-12-17T05:09:51.315Z,-5.58
2022-12-17T05:12:37.289Z,-5.38
2022-12-17T05:15:25.461Z,-5.30
2022-12-17T05:18:12.277Z,-5.39
2022-12-17T05:20:58.658Z,-5.44
2022-12-17T05:23:46.413Z,-5.52
2022-12-17T05:26:37.478Z,-5.56
2022-12-17T05:29:23.081Z,-5.37
2022-12-17T05:32:09.892Z,-5.29
2022-12-17T05:34:54.742Z,-5.48
2022-12-17T05:37:42.448Z,-5.44
2022-12-17T05:40:29.111Z,-5.20
2022-12-17T05:43:15.760Z,-5.40
2022-12-17T05:46:02.487Z,-5.31
2022-12-17T05:48:50.088Z,-5.28
2022-12-17T05:51:38.852Z,-5.28
2022-12-17T05:54:25.617Z,-5.50
2022-12-17T05:57:11.400Z,-5.69
2022-12-17T05:59:56.502Z,-5.35
2022-12-17T06:02:41.673Z,-5.43
2022-12-17T06:05:28.850Z,-5.37
2022-12-17T06:08:21.564Z,-5.42
2022-12-17T06:11:06.997Z,-5.53
2022-12-17T06:13:52.368Z,-5.81
2022-12-17T06:16:38.242Z,-5.62
2022-12-17T06:19:23.567Z,-5.45
2022-12-17T06:22:10.306Z,-5.30
2022-12-17T06:24:55.729Z,-5.38
2022-12-17T06:27:40.998Z,-5.37
2022-12-17T06:30:27.225Z,-5.43
2022-12-17T06:33:22.106Z,-5.50
2022-12-17T06:36:07.368Z,-5.39
2022-12-17T06:38:54.051Z,-5.53
2022-12-17T06:41:39.236Z,-5.41
2022-12-17T06:44:24.484Z,-5.39
2022-12-17T06:47:10.040Z,-5.54
2022-12-17T06:50:01.113Z,-5.56
2022-12-17T06:52:47.019Z,-5.65
2022-12-17T06:55:33.701Z,-5.90
2022-12-17T06:58:34.493Z,-5.65
2022-12-17T07:01:19.671Z,-5.59
2022-12-17T07:04:04.864Z,-5.68
2022-12-17T07:06:50.170Z,-5.70
2022-12-17T07:09:35.412Z,-5.71
2022-12-17T07:12:22.464Z,-5.72
2022-12-17T07:15:07.712Z,-5.54
2022-12-17T07:17:52.834Z,-5.65
2022-12-17T07:20:37.926Z,-5.67
2022-12-17T07:23:31.695Z,-5.66
2022-12-17T07:26:17.201Z,-5.77
2022-12-17T07:29:08.217Z,-5.71
2022-12-17T07:31:54.858Z,-5.70
2022-12-17T07:34:40.689Z,-5.67
2022-12-17T07:38:04.635Z,-5.61
2022-12-17T07:40:54.246Z,-5.61
2022-12-17T07:43:42.319Z,-5.56
2022-12-17T07:46:31.276Z,-5.59
2022-12-17T07:49:21.343Z,-5.44
2022-12-17T07:52:12.490Z,-5.38
2022-12-17T07:54:58.195Z,-5.39
2022-12-17T07:57:43.829Z,-5.48
2022-12-17T08:00:31.205Z,-5.45
2022-12-17T08:03:19.546Z,-5.35
2022-12-17T08:06:05.105Z,-5.87
2022-12-17T08:08:50.566Z,-5.50
2022-12-17T08:11:44.098Z,-5.64
2022-12-17T08:14:29.391Z,-5.79
2022-12-17T08:17:15.197Z,-5.73
2022-12-17T08:20:02.380Z,-5.92
2022-12-17T08:22:48.895Z,-5.71
2022-12-17T08:25:35.887Z,-5.60
2022-12-17T08:28:41.558Z,-5.71
2022-12-17T08:31:23.344Z,-5.78
2022-12-17T08:34:08.750Z,-5.51
2022-12-17T08:36:55.457Z,-5.63
2022-12-17T08:39:40.674Z,-5.98
2022-12-17T08:42:25.908Z,-6.00
2022-12-17T08:45:11.046Z,-5.64
2022-12-17T08:48:02.080Z,-5.56
2022-12-17T08:50:49.683Z,-5.78
2022-12-17T08:53:37.115Z,-5.79
2022-12-17T08:56:23.519Z,-5.56
2022-12-17T08:59:11.372Z,-5.68
2022-12-17T09:01:56.961Z,-5.66
2022-12-17T09:04:42.717Z,-5.57
2022-12-17T09:07:28.482Z,-5.92
2022-12-17T09:10:15.654Z,-5.72
2022-12-17T09:13:04.583Z,-5.67
2022-12-17T09:15:50.623Z,-6.03
2022-12-17T09:21:52.942Z,-5.53
2022-12-17T09:24:38.266Z,-5.36
2022-12-17T09:27:25.274Z,-5.34
2022-12-17T09:30:10.795Z,-5.61
2022-12-17T09:32:56.660Z,-5.68
2022-12-17T09:35:42.879Z,-5.29
2022-12-17T09:38:31.389Z,-5.37
2022-12-17T09:41:23.847Z,-5.74
2022-12-17T09:44:20.228Z,-5.44
2022-12-17T09:47:11.531Z,-5.48
2022-12-17T09:49:57.483Z,-5.76
2022-12-17T09:52:50.510Z,-5.60
2022-12-17T09:55:39.707Z,-5.87
2022-12-17T09:58:28.480Z,-5.67
2022-12-17T10:01:15.625Z,-5.45
2022-12-17T10:04:05.654Z,-5.67
2022-12-17T10:06:53.877Z,-5.64
2022-12-17T10:09:39.433Z,-5.40
2022-12-17T10:12:33.007Z,-5.21
2022-12-17T10:15:18.354Z,-4.97
2022-12-17T10:18:05.163Z,-4.96
2022-12-17T10:20:55.049Z,-5.12
2022-12-17T10:23:45.143Z,-5.44
2022-12-17T10:26:41.706Z,-5.38
2022-12-17T10:29:30.783Z,-6.07
2022-12-17T10:32:26.670Z,-5.69
2022-12-17T10:35:13.661Z,-5.53
2022-12-17T10:37:59.106Z,-5.74
2022-12-17T10:40:48.128Z,-5.53
2022-12-17T10:43:44.593Z,-5.27
2022-12-17T10:46:30.685Z,-4.94
2022-12-17T10:49:23.554Z,-4.93
2022-12-17T10:52:10.386Z,-4.93
2022-12-17T10:54:55.417Z,-5.25
2022-12-17T10:57:46.045Z,-5.21
2022-12-17T11:00:47.413Z,-5.29
2022-12-17T11:03:58.102Z,-4.96
2022-12-17T11:06:48.436Z,-5.01
2022-12-17T11:09:50.849Z,-4.79
2022-12-17T11:12:41.094Z,-4.70
2022-12-17T11:15:37.942Z,-4.65
2022-12-17T11:18:25.461Z,-4.60
2022-12-17T11:21:19.337Z,-4.52
2022-12-17T11:24:07.983Z,-4.55
2022-12-17T11:26:58.036Z,-4.56
2022-12-17T11:29:44.966Z,-4.89
2022-12-17T11:32:58.860Z,-4.73
2022-12-17T11:35:52.118Z,-4.88
2022-12-17T11:38:48.546Z,-5.24
2022-12-17T11:41:39.885Z,-5.17
2022-12-17T11:44:39.946Z,-4.91
2022-12-17T11:47:39.962Z,-5.00
2022-12-17T11:50:39.396Z,-4.86
2022-12-17T11:53:36.211Z,-5.25
2022-12-17T11:56:31.700Z,-5.35
2022-12-17T11:59:24.512Z,-5.53
2022-12-17T12:02:21.209Z,-4.99
2022-12-17T12:05:29.753Z,-5.20
2022-12-17T12:08:23.513Z,-5.12
2022-12-17T12:11:16.728Z,-4.84
2022-12-17T12:14:08.732Z,-5.40
2022-12-17T12:17:02.333Z,-5.51
2022-12-17T12:20:00.754Z,-5.52
2022-12-17T12:22:51.404Z,-4.93
2022-12-17T12:25:50.843Z,-4.73
2022-12-17T12:28:45.281Z,-4.92
2022-12-17T12:31:35.052Z,-4.74
2022-12-17T12:34:24.770Z,-4.82
2022-12-17T12:37:12.047Z,-4.80
2022-12-17T12:40:06.278Z,-4.75
2022-12-17T12:43:00.435Z,-4.93
2022-12-17T12:45:56.262Z,-5.02
2022-12-17T12:48:54.196Z,-4.72
2022-12-17T12:51:43.593Z,-4.85
2022-12-17T12:54:44.766Z,-5.16
2022-12-17T12:57:50.733Z,-4.87
2022-12-17T13:00:52.843Z,-5.05
2022-12-17T13:03:49.545Z,-5.18
2022-12-17T13:06:42.678Z,-5.03
2022-12-17T13:09:34.844Z,-4.75
2022-12-17T13:12:21.532Z,-4.88
2022-12-17T13:14:56.209Z,-4.71
2022-12-17T13:17:37.088Z,-4.68
2022-12-17T13:20:24.648Z,-4.66
2022-12-17T13:22:55.412Z,-4.79
2022-12-17T13:25:26.230Z,-4.82
2022-12-17T13:27:55.155Z,-5.29
2022-12-17T13:30:33.675Z,-5.15
2022-12-17T13:33:17.130Z,-4.94
2022-12-17T13:35:54.326Z,-4.82
2022-12-17T13:38:29.288Z,-5.38
2022-12-17T13:41:10.205Z,-4.95
2022-12-17T13:43:45.471Z,-5.15
2022-12-17T13:46:24.687Z,-4.65
2022-12-17T13:48:57.701Z,-4.78
2022-12-17T13:51:27.569Z,-4.67
2022-12-17T13:53:57.536Z,-4.87
2022-12-17T13:56:30.202Z,-5.20
2022-12-17T13:59:04.539Z,-5.15
2022-12-17T14:01:45.938Z,-4.98
2022-12-17T14:04:22.076Z,-5.06
2022-12-17T14:06:51.104Z,-5.19
2022-12-17T14:09:21.110Z,-4.93
2022-12-17T14:12:08.211Z,-5.20
2022-12-17T14:14:41.956Z,-5.16
2022-12-17T14:17:18.647Z,-5.06
2022-12-17T14:19:47.467Z,-5.67
2022-12-17T14:22:20.843Z,-5.25
2022-12-17T14:24:49.020Z,-5.03
2022-12-17T14:27:27.155Z,-5.26
2022-12-17T14:29:57.061Z,-5.30
2022-12-17T14:32:31.339Z,-5.26
2022-12-17T14:35:00.998Z,-5.24
2022-12-17T14:37:30.301Z,-5.25
2022-12-17T14:40:03.871Z,-5.14
2022-12-17T14:42:37.893Z,-5.02
2022-12-17T14:45:21.934Z,-5.23
2022-12-17T14:47:55.064Z,-5.21
2022-12-17T14:50:30.038Z,-5.14
2022-12-17T14:52:59.374Z,-5.25
2022-12-17T14:55:34.400Z,-5.56
2022-12-17T14:58:22.029Z,-5.44
2022-12-17T15:00:53.981Z,-5.20
2022-12-17T15:03:25.759Z,-5.18
2022-12-17T15:05:57.916Z,-5.36
2022-12-17T15:08:25.858Z,-5.14
2022-12-17T15:10:53.837Z,-5.55
2022-12-17T15:13:23.162Z,-5.44
2022-12-17T15:15:51.156Z,-5.52
2022-12-17T15:18:19.191Z,-5.48
2022-12-17T15:20:47.220Z,-5.42
2022-12-17T15:23:17.879Z,-5.22
2022-12-17T15:25:47.155Z,-5.23
2022-12-17T15:28:15.638Z,-5.32
2022-12-17T15:30:45.341Z,-5.38
2022-12-17T15:33:13.411Z,-5.44
2022-12-17T15:35:42.059Z,-5.61
2022-12-17T15:38:10.075Z,-5.59
2022-12-17T15:40:38.557Z,-5.49
2022-12-17T15:43:11.614Z,-6.01
2022-12-17T15:45:40.276Z,-6.06
2022-12-17T15:48:09.775Z,-5.62
2022-12-17T15:50:38.235Z,-5.46
2022-12-17T15:53:06.564Z,-5.79
2022-12-17T15:55:34.856Z,-5.42
2022-12-17T15:58:03.371Z,-5.43
2022-12-17T16:00:31.393Z,-5.41
2022-12-17T16:02:59.562Z,-5.46
2022-12-17T16:05:29.312Z,-5.83
2022-12-17T16:08:02.283Z,-5.62
2022-12-17T16:10:30.952Z,-5.73
2022-12-17T16:12:58.939Z,-5.46
2022-12-17T16:15:26.983Z,-5.47
2022-12-17T16:17:54.975Z,-5.44
2022-12-17T16:20:22.963Z,-5.29
2022-12-17T16:22:52.392Z,-5.44
2022-12-17T16:25:20.504Z,-5.40
2022-12-17T16:27:48.517Z,-5.38
2022-12-17T16:30:16.579Z,-5.36
2022-12-17T16:32:44.735Z,-5.73
2022-12-17T16:35:14.157Z,-5.69
2022-12-17T16:37:42.159Z,-5.72
2022-12-17T16:40:12.916Z,-5.83
2022-12-17T16:42:40.905Z,-5.57
2022-12-17T16:45:09.544Z,-5.71
2022-12-17T16:47:37.556Z,-5.95
2022-12-17T16:50:06.466Z,-5.71
2022-12-17T16:52:35.230Z,-5.74
2022-12-17T16:55:03.189Z,-5.50
2022-12-17T16:57:33.105Z,-5.39
2022-12-17T17:00:01.048Z,-5.85
2022-12-17T17:02:30.239Z,-5.93
2022-12-17T17:04:58.316Z,-6.33
2022-12-17T17:07:26.275Z,-5.80
2022-12-17T17:09:54.519Z,-5.67
2022-12-17T17:12:22.474Z,-5.49
2022-12-17T17:14:51.986Z,-5.74
2022-12-17T17:17:19.952Z,-5.99
2022-12-17T17:20:08.398Z,-5.95
2022-12-17T17:22:36.346Z,-5.76
2022-12-17T17:25:05.108Z,-5.61
2022-12-17T17:27:33.148Z,-5.59
2022-12-17T17:30:03.934Z,-5.51
2022-12-17T17:32:32.230Z,-5.55
2022-12-17T17:35:00.246Z,-5.71
2022-12-17T17:37:28.472Z,-5.44
2022-12-17T17:39:56.485Z,-5.63
2022-12-17T17:42:24.478Z,-5.75
2022-12-17T17:44:52.705Z,-5.88
2022-12-17T17:47:22.151Z,-5.77
2022-12-17T17:49:50.087Z,-6.05
2022-12-17T17:52:18.168Z,-5.75
2022-12-17T17:54:46.087Z,-5.56
2022-12-17T17:57:14.071Z,-5.48
2022-12-17T17:59:41.954Z,-5.55
2022-12-17T18:02:12.203Z,-5.85
2022-12-17T18:04:41.636Z,-5.65
2022-12-17T18:07:25.367Z,-5.66
2022-12-17T18:09:54.204Z,-6.05
2022-12-17T18:12:48.064Z,-5.61
2022-12-17T18:15:17.836Z,-5.63
2022-12-17T18:17:47.750Z,-5.71
2022-12-17T18:20:17.582Z,-5.50
2022-12-17T18:22:46.896Z,-5.58
2022-12-17T18:25:15.345Z,-5.65
2022-12-17T18:27:43.353Z,-5.46
2022-12-17T18:30:12.025Z,-5.54
2022-12-17T18:32:40.007Z,-5.60
2022-12-17T18:35:08.973Z,-5.84
2022-12-17T18:37:38.386Z,-5.83
2022-12-17T18:40:07.847Z,-5.56
2022-12-17T18:43:00.507Z,-5.75
2022-12-17T18:45:28.467Z,-6.11
2022-12-17T18:47:56.447Z,-5.90
2022-12-17T18:50:24.633Z,-6.03
2022-12-17T18:52:55.054Z,-5.76
2022-12-17T18:55:25.736Z,-5.76
2022-12-17T18:57:54.224Z,-5.87
2022-12-17T19:00:27.135Z,-6.13
2022-12-17T19:02:55.655Z,-6.08
2022-12-17T19:05:24.206Z,-6.17
2022-12-17T19:07:54.068Z,-6.09
2022-12-17T19:10:22.005Z,-5.73
2022-12-17T19:12:49.979Z,-5.83
2022-12-17T19:15:18.178Z,-6.15
2022-12-17T19:17:46.159Z,-6.12
2022-12-17T19:20:14.071Z,-6.15
2022-12-17T19:22:42.078Z,-6.20
2022-12-17T19:25:11.707Z,-6.35
2022-12-17T19:27:39.672Z,-6.12
2022-12-17T19:30:09.068Z,-6.10
2022-12-17T19:32:37.191Z,-6.07
2022-12-17T19:35:05.628Z,-5.98
2022-12-17T19:37:33.560Z,-6.06
2022-12-17T19:40:01.547Z,-6.10
2022-12-17T19:42:37.087Z,-5.75
2022-12-17T19:45:05.779Z,-6.45
2022-12-17T19:47:33.737Z,-6.43
2022-12-17T19:50:01.663Z,-6.30
2022-12-17T19:52:29.592Z,-6.73
2022-12-17T19:54:57.479Z,-6.49
2022-12-17T19:57:25.436Z,-6.42
2022-12-17T19:59:58.764Z,-6.53
2022-12-17T20:02:32.337Z,-6.39
2022-12-17T20:05:00.829Z,-6.39
2022-12-17T20:07:28.757Z,-6.14
2022-12-17T20:09:56.693Z,-6.01
2022-12-17T20:12:24.652Z,-5.93
2022-12-17T20:14:54.047Z,-5.93
2022-12-17T20:17:22.014Z,-5.95
2022-12-17T20:19:53.361Z,-6.05
2022-12-17T20:22:22.850Z,-6.15
2022-12-17T20:24:50.778Z,-5.90
2022-12-17T20:27:18.828Z,-6.04
2022-12-17T20:29:46.766Z,-6.02
2022-12-17T20:32:19.536Z,-6.44
2022-12-17T20:34:47.689Z,-6.27
2022-12-17T20:37:15.651Z,-6.09
2022-12-17T20:39:43.591Z,-6.07
2022-12-17T20:42:11.547Z,-5.93
2022-12-17T20:44:39.649Z,-6.16
2022-12-17T20:47:07.686Z,-6.29
2022-12-17T20:49:37.398Z,-6.49
2022-12-17T20:52:05.423Z,-6.20
2022-12-17T20:54:33.445Z,-6.29
2022-12-17T20:57:01.443Z,-6.15
2022-12-17T20:59:29.398Z,-6.23
2022-12-17T21:01:57.415Z,-6.17
2022-12-17T21:04:25.482Z,-5.75
2022-12-17T21:06:54.966Z,-5.66
2022-12-17T21:09:25.540Z,-6.12
2022-12-17T21:11:53.910Z,-5.84
2022-12-17T21:14:21.850Z,-5.92
2022-12-17T21:16:49.934Z,-6.24
2022-12-17T21:19:20.352Z,-6.32
2022-12-17T21:21:48.805Z,-6.27
2022-12-17T21:24:18.230Z,-6.37
2022-12-17T21:26:48.173Z,-6.38
2022-12-17T21:29:17.021Z,-6.25
2022-12-17T21:31:47.471Z,-6.08
2022-12-17T21:34:17.456Z,-6.50
2022-12-17T21:36:45.697Z,-6.34
2022-12-17T21:39:14.775Z,-6.16
2022-12-17T21:42:07.081Z,-6.13
2022-12-17T21:44:35.170Z,-6.37
2022-12-17T21:47:03.565Z,-6.18
2022-12-17T21:49:31.607Z,-6.12
2022-12-17T21:52:00.738Z,-6.07
2022-12-17T21:54:28.772Z,-6.13
2022-12-17T21:56:58.163Z,-6.36
2022-12-17T21:59:26.133Z,-6.42
2022-12-17T22:01:57.509Z,-6.44
2022-12-17T22:04:26.413Z,-6.18
2022-12-17T22:06:59.701Z,-6.58
2022-12-17T22:09:52.161Z,-6.51
2022-12-17T22:12:40.926Z,-6.18
2022-12-17T22:15:11.212Z,-6.33
2022-12-17T22:17:40.816Z,-6.12
2022-12-17T22:20:10.519Z,-6.00
2022-12-17T22:22:38.954Z,-6.22
2022-12-17T22:25:08.961Z,-5.98
2022-12-17T22:27:39.681Z,-5.83
2022-12-17T22:30:27.292Z,-6.03
2022-12-17T22:33:02.734Z,-5.88
2022-12-17T22:37:17.443Z,-5.74
2022-12-17T22:42:31.025Z,-5.78
2022-12-17T22:44:35.118Z,-5.87
2022-12-17T22:44:45.327Z,-5.80
2022-12-17T22:47:11.062Z,-6.35
2022-12-17T22:49:42.550Z,-6.26
2022-12-17T22:52:21.587Z,-6.04
2022-12-17T22:54:50.016Z,-6.08
2022-12-17T22:57:35.710Z,-6.48
2022-12-17T23:00:15.997Z,-6.31
2022-12-17T23:02:47.724Z,-6.39
2022-12-17T23:05:16.376Z,-6.33
2022-12-17T23:07:46.745Z,-6.27
2022-12-17T23:10:15.375Z,-6.31
2022-12-17T23:12:52.918Z,-6.21
2022-12-17T23:15:28.629Z,-6.21
2022-12-17T23:17:59.725Z,-6.09
2022-12-17T23:20:30.340Z,-6.08
2022-12-17T23:22:58.784Z,-6.05
2022-12-17T23:25:27.089Z,-6.20
2022-12-17T23:27:55.881Z,-6.47
2022-12-17T23:30:25.254Z,-6.60
2022-12-17T23:32:53.270Z,-6.62
2022-12-17T23:35:21.483Z,-7.04
2022-12-17T23:37:49.535Z,-6.71
2022-12-17T23:40:17.533Z,-6.67
2022-12-17T23:42:45.487Z,-6.63
2022-12-17T23:45:13.772Z,-6.52
2022-12-17T23:47:43.103Z,-6.62
2022-12-17T23:50:11.819Z,-6.61
2022-12-17T23:52:40.482Z,-6.79
2022-12-17T23:55:09.336Z,-6.68
2022-12-17T23:57:37.304Z,-7.10
